Time;durP1;ratioP1;P1;durP2;ratioP2;P2;SDS_P1;SDS_P2;PMS_P1;PMS_P2;Temp;Humidity;BMP_temperature;BMP_pressure;BME280_temperature;BME280_humidity;BME280_pressure;Samples;Min_cycle;Max_cycle;Signal;HPM_P1;HPM_P2
2024/01/30 00:00:36;;;;;;;13.70;7.17;;;;;;;0.96;100.00;97666.03;5057291;28;20216;-68
2024/01/30 00:03:04;;;;;;;11.73;7.00;;;;;;;1.05;100.00;97667.28;5057788;28;20208;-68
2024/01/30 00:05:31;;;;;;;14.27;6.83;;;;;;;0.92;100.00;97674.91;5057788;28;20211;-68
2024/01/30 00:07:57;;;;;;;16.00;6.93;;;;;;;0.84;100.00;97676.25;5057171;28;20232;-68
2024/01/30 00:10:24;;;;;;;16.37;7.93;;;;;;;0.97;100.00;97665.13;5050631;28;20220;-68
2024/01/30 00:12:51;;;;;;;15.77;7.57;;;;;;;0.84;100.00;97671.06;5057397;28;20611;-68
2024/01/30 00:15:18;;;;;;;21.83;9.20;;;;;;;0.90;100.00;97671.56;5057902;28;20226;-68
2024/01/30 00:17:44;;;;;;;14.53;7.27;;;;;;;0.89;100.00;97675.09;5053197;28;20298;-68
2024/01/30 00:20:12;;;;;;;16.17;7.50;;;;;;;1.01;100.00;97679.59;5056985;28;20221;-68
2024/01/30 00:22:39;;;;;;;15.07;7.23;;;;;;;0.96;100.00;97689.38;5057547;28;20209;-68
2024/01/30 00:25:06;;;;;;;18.23;8.47;;;;;;;0.99;100.00;97680.59;5057489;28;20205;-68
2024/01/30 00:27:32;;;;;;;19.27;7.87;;;;;;;0.93;100.00;97679.19;5056710;28;20209;-68
2024/01/30 00:29:59;;;;;;;15.00;7.67;;;;;;;0.96;100.00;97688.56;5048544;28;20238;-68
2024/01/30 00:32:25;;;;;;;14.13;6.27;;;;;;;0.94;100.00;97685.19;5050828;28;20212;-68
2024/01/30 00:34:52;;;;;;;21.03;8.83;;;;;;;1.03;100.00;97693.34;5057208;28;20208;-68
2024/01/30 00:37:20;;;;;;;15.57;7.53;;;;;;;1.10;100.00;97689.47;5056266;28;20215;-68
2024/01/30 00:39:46;;;;;;;15.57;8.23;;;;;;;0.95;100.00;97692.06;5056367;28;20243;-68
2024/01/30 00:42:13;;;;;;;16.83;6.73;;;;;;;0.90;100.00;97687.13;5057278;28;20200;-68
2024/01/30 00:44:39;;;;;;;19.43;8.13;;;;;;;0.92;100.00;97690.47;5056385;28;20222;-68
2024/01/30 00:47:06;;;;;;;15.53;7.03;;;;;;;0.92;100.00;97687.06;5053571;28;20215;-68
2024/01/30 00:49:32;;;;;;;16.80;7.73;;;;;;;0.82;100.00;97684.13;5057218;28;20224;-68
2024/01/30 00:51:59;;;;;;;19.53;8.63;;;;;;;0.78;100.00;97681.78;5056688;28;20214;-68
2024/01/30 00:54:27;;;;;;;13.43;6.20;;;;;;;0.86;100.00;97689.97;5056869;28;20207;-68
2024/01/30 00:56:53;;;;;;;19.77;7.67;;;;;;;0.72;100.00;97682.94;5057051;28;20208;-68
2024/01/30 00:59:20;;;;;;;18.80;7.90;;;;;;;0.73;100.00;97678.59;5056013;28;20299;-68
2024/01/30 01:01:46;;;;;;;16.93;7.33;;;;;;;0.64;100.00;97679.09;5056583;28;20200;-68
2024/01/30 01:04:13;;;;;;;19.10;7.13;;;;;;;0.56;100.00;97680.41;5048923;28;20258;-68
2024/01/30 01:06:42;;;;;;;19.87;7.87;;;;;;;0.56;100.00;97683.88;5056599;28;20200;-68
2024/01/30 01:09:09;;;;;;;20.70;7.63;;;;;;;0.43;100.00;97680.22;5054952;28;20224;-68
2024/01/30 01:11:37;;;;;;;16.53;7.33;;;;;;;0.50;100.00;97683.31;5056579;28;20204;-68
2024/01/30 01:14:04;;;;;;;11.27;6.33;;;;;;;0.38;100.00;97681.38;5056495;28;20204;-68
2024/01/30 01:16:31;;;;;;;13.57;6.17;;;;;;;0.49;100.00;97679.91;5055606;28;20611;-68
2024/01/30 01:18:57;;;;;;;22.37;6.60;;;;;;;0.56;100.00;97683.00;5052635;28;20246;-68
2024/01/30 01:21:24;;;;;;;15.67;6.00;;;;;;;0.53;100.00;97680.59;5056356;28;20203;-68
2024/01/30 01:23:50;;;;;;;13.57;6.33;;;;;;;0.52;100.00;97682.31;5056122;28;20463;-68
2024/01/30 01:26:17;;;;;;;15.07;6.87;;;;;;;0.52;100.00;97679.72;5055890;28;20231;-68
2024/01/30 01:28:45;;;;;;;14.37;6.17;;;;;;;0.56;100.00;97676.09;5056113;28;20243;-68
2024/01/30 01:31:11;;;;;;;18.73;6.77;;;;;;;0.35;100.00;97678.97;5056136;28;20202;-68
2024/01/30 01:33:38;;;;;;;15.13;6.13;;;;;;;0.45;100.00;97678.41;5056269;28;20586;-68
2024/01/30 01:36:06;;;;;;;17.93;6.97;;;;;;;0.51;100.00;97675.50;5056303;28;20636;-68
2024/01/30 01:38:33;;;;;;;13.90;6.80;;;;;;;0.57;100.00;97675.13;5055635;28;20278;-68
2024/01/30 01:40:59;;;;;;;14.83;6.67;;;;;;;0.53;100.00;97686.59;5055638;28;20200;-68
2024/01/30 01:43:25;;;;;;;14.07;6.60;;;;;;;0.54;100.00;97683.09;5056099;28;20215;-68
2024/01/30 01:45:53;;;;;;;11.43;5.57;;;;;;;0.68;100.00;97680.59;5056138;28;20200;-68
2024/01/30 01:48:20;;;;;;;12.60;6.03;;;;;;;0.59;100.00;97681.09;5050942;28;20563;-68
2024/01/30 01:50:47;;;;;;;13.13;6.70;;;;;;;0.67;100.00;97678.91;5055957;28;20200;-68
2024/01/30 01:53:14;;;;;;;15.53;7.87;;;;;;;0.73;100.00;97676.81;5055672;28;20204;-68
2024/01/30 01:55:41;;;;;;;10.10;5.60;;;;;;;0.67;100.00;97673.72;5055590;28;20212;-68
2024/01/30 01:58:09;;;;;;;14.67;6.47;;;;;;;0.82;100.00;97672.91;5055629;28;20223;-68
2024/01/30 02:00:39;;;;;;;12.47;5.23;;;;;;;0.81;100.00;97672.06;5057209;28;20206;-68
2024/01/30 02:03:09;;;;;;;16.33;6.33;;;;;;;0.78;100.00;97676.59;5055907;28;20205;-68
2024/01/30 02:05:35;;;;;;;11.10;5.07;;;;;;;0.62;100.00;97674.00;5055647;28;20202;-68
2024/01/30 02:08:02;;;;;;;15.40;6.37;;;;;;;0.41;100.00;97666.53;5055392;28;20585;-68
2024/01/30 02:10:29;;;;;;;13.70;6.43;;;;;;;0.51;100.00;97665.13;5055922;28;20329;-68
2024/01/30 02:12:55;;;;;;;12.53;5.90;;;;;;;0.52;100.00;97671.94;5055949;28;20197;-68
2024/01/30 02:15:22;;;;;;;14.30;7.20;;;;;;;0.56;100.00;97665.72;5055964;28;20200;-68
2024/01/30 02:17:48;;;;;;;9.77;4.57;;;;;;;0.57;100.00;97669.94;5051025;28;20222;-68
2024/01/30 02:20:16;;;;;;;13.03;6.03;;;;;;;0.67;100.00;97665.94;5055106;28;20223;-68
2024/01/30 02:22:44;;;;;;;8.90;5.13;;;;;;;0.65;100.00;97673.00;5055769;28;20211;-68
2024/01/30 02:25:11;;;;;;;10.27;5.93;;;;;;;0.47;100.00;97668.78;5055732;28;20208;-68
2024/01/30 02:27:37;;;;;;;11.33;4.90;;;;;;;0.52;100.00;97664.16;5055305;28;20209;-68
2024/01/30 02:30:05;;;;;;;11.77;5.93;;;;;;;0.65;100.00;97667.81;5055309;28;20224;-68
2024/01/30 02:32:32;;;;;;;13.03;5.67;;;;;;;0.66;100.00;97662.53;5055891;28;20234;-68
2024/01/30 02:34:58;;;;;;;12.80;6.03;;;;;;;0.65;100.00;97662.63;5055741;28;20500;-68
2024/01/30 02:37:25;;;;;;;14.23;6.33;;;;;;;0.66;100.00;97665.13;5054629;28;20214;-68
2024/01/30 02:39:53;;;;;;;12.37;6.23;;;;;;;0.64;100.00;97668.72;5055301;28;20220;-68
2024/01/30 02:42:19;;;;;;;12.77;5.40;;;;;;;0.58;100.00;97663.84;5055884;28;20204;-68
2024/01/30 02:44:46;;;;;;;12.47;5.93;;;;;;;0.48;100.00;97662.66;5055565;28;20997;-68
2024/01/30 02:47:12;;;;;;;8.90;4.87;;;;;;;0.46;100.00;97659.34;5050277;28;20202;-68
2024/01/30 02:49:39;;;;;;;15.53;5.53;;;;;;;0.49;100.00;97664.34;5054903;28;20592;-68
2024/01/30 02:52:06;;;;;;;10.07;5.43;;;;;;;0.55;100.00;97664.03;5055049;28;20645;-68
2024/01/30 02:54:32;;;;;;;9.90;5.67;;;;;;;0.54;100.00;97666.72;5055534;28;20200;-68
2024/01/30 02:57:00;;;;;;;11.73;5.43;;;;;;;0.58;100.00;97663.84;5055768;28;20204;-68
2024/01/30 02:59:26;;;;;;;9.03;5.20;;;;;;;0.53;100.00;97660.66;5054382;28;20220;-68
2024/01/30 03:01:53;;;;;;;14.53;5.83;;;;;;;0.58;100.00;97664.69;5055030;28;20207;-68
2024/01/30 03:04:19;;;;;;;9.60;5.27;;;;;;;0.59;100.00;97671.53;5057378;28;20203;-68
2024/01/30 03:06:47;;;;;;;12.80;6.23;;;;;;;0.68;100.00;97667.63;5058567;28;20196;-68
2024/01/30 03:09:14;;;;;;;13.83;6.07;;;;;;;0.65;100.00;97660.03;5057966;28;20236;-68
2024/01/30 03:11:40;;;;;;;12.67;5.40;;;;;;;0.58;100.00;97663.03;5058833;28;20816;-68
2024/01/30 03:14:10;;;;;;;13.23;5.37;;;;;;;0.65;100.00;97653.06;5058752;28;20200;-68
2024/01/30 03:16:37;;;;;;;15.07;6.23;;;;;;;0.60;100.00;97656.84;5057597;28;20201;-68
2024/01/30 03:19:04;;;;;;;8.57;4.57;;;;;;;0.60;100.00;97652.47;5054377;28;20227;-68
2024/01/30 03:21:30;;;;;;;12.87;5.60;;;;;;;0.57;100.00;97651.81;5058644;28;20200;-68
2024/01/30 03:23:57;;;;;;;10.47;4.13;;;;;;;0.59;100.00;97644.78;5058346;28;20196;-68
2024/01/30 03:26:23;;;;;;;15.27;5.93;;;;;;;0.56;100.00;97652.75;5058940;28;20201;-68
2024/01/30 03:28:49;;;;;;;10.43;4.60;;;;;;;0.41;100.00;97653.56;5058112;28;20690;-68
2024/01/30 03:31:17;;;;;;;11.07;4.80;;;;;;;0.58;100.00;97653.47;5058025;28;20390;-68
2024/01/30 03:33:44;;;;;;;11.87;4.33;;;;;;;0.43;100.00;97654.28;5058317;28;20200;-68
2024/01/30 03:36:11;;;;;;;13.33;5.47;;;;;;;0.39;100.00;97657.97;5058329;28;20200;-68
2024/01/30 03:38:38;;;;;;;10.93;5.03;;;;;;;0.44;100.00;97652.56;5052367;28;20242;-68
2024/01/30 03:41:08;;;;;;;10.27;4.77;;;;;;;0.46;100.00;97658.47;5057684;28;20201;-68
2024/01/30 03:43:35;;;;;;;11.47;5.03;;;;;;;0.28;100.00;97652.53;5051141;28;20218;-68
2024/01/30 03:46:02;;;;;;;10.90;4.77;;;;;;;0.41;100.00;97657.88;5058555;28;20542;-68
2024/01/30 03:48:30;;;;;;;9.40;5.23;;;;;;;0.38;100.00;97656.31;5052525;28;20670;-68
2024/01/30 03:50:57;;;;;;;9.57;5.30;;;;;;;0.40;100.00;97651.06;5053821;28;20482;-68
2024/01/30 03:53:23;;;;;;;10.40;4.87;;;;;;;0.29;100.00;97651.59;5057738;28;20358;-68
2024/01/30 03:55:50;;;;;;;8.43;4.60;;;;;;;0.21;100.00;97656.34;5053011;28;20681;-68
2024/01/30 03:58:16;;;;;;;9.23;4.20;;;;;;;0.30;100.00;97655.88;5057493;28;20200;-68
2024/01/30 04:00:43;;;;;;;10.07;4.83;;;;;;;0.29;100.00;97653.34;5057727;28;20197;-68
2024/01/30 04:03:09;;;;;;;11.37;5.27;;;;;;;0.29;100.00;97656.78;5058184;28;20203;-68
2024/01/30 04:05:37;;;;;;;15.40;5.60;;;;;;;0.47;100.00;97650.66;5050928;28;20196;-68
2024/01/30 04:08:04;;;;;;;12.60;5.40;;;;;;;0.34;100.00;97653.97;5056862;28;20199;-68
2024/01/30 04:10:31;;;;;;;11.53;5.27;;;;;;;0.30;100.00;97653.28;5057690;28;20597;-69
2024/01/30 04:12:57;;;;;;;8.40;4.67;;;;;;;0.24;100.00;97655.34;5058638;28;20204;-68
2024/01/30 04:15:24;;;;;;;9.27;5.03;;;;;;;0.24;100.00;97656.22;5055545;28;20211;-68
2024/01/30 04:17:51;;;;;;;10.17;4.77;;;;;;;0.07;100.00;97661.41;5046859;28;20192;-68
2024/01/30 04:20:17;;;;;;;13.77;5.73;;;;;;;0.17;100.00;97660.03;5058345;28;20227;-68
2024/01/30 04:22:46;;;;;;;10.63;4.23;;;;;;;0.31;100.00;97654.97;5057813;28;20200;-68
2024/01/30 04:25:13;;;;;;;12.70;5.00;;;;;;;0.21;100.00;97651.16;5056700;28;20200;-68
2024/01/30 04:27:40;;;;;;;9.27;4.90;;;;;;;0.18;100.00;97655.69;5056178;28;20396;-68
2024/01/30 04:30:08;;;;;;;9.03;4.43;;;;;;;0.19;100.00;97659.94;5057522;28;20323;-68
2024/01/30 04:32:35;;;;;;;8.77;4.13;;;;;;;0.29;100.00;97655.94;5050725;28;20234;-68
2024/01/30 04:35:02;;;;;;;8.53;4.17;;;;;;;0.21;100.00;97655.53;5056609;28;20794;-68
2024/01/30 04:37:28;;;;;;;10.30;5.60;;;;;;;0.18;100.00;97655.69;5056155;28;20200;-68
2024/01/30 04:39:57;;;;;;;11.87;5.53;;;;;;;0.26;100.00;97659.53;5057282;28;20604;-68
2024/01/30 04:42:23;;;;;;;13.17;5.67;;;;;;;0.08;100.00;97660.50;5056465;28;20200;-68
2024/01/30 04:44:50;;;;;;;9.97;4.63;;;;;;;0.19;100.00;97658.22;5057002;28;20207;-68
2024/01/30 04:47:17;;;;;;;13.23;4.50;;;;;;;0.18;100.00;97651.34;5051442;28;20261;-68
2024/01/30 04:49:43;;;;;;;15.37;5.43;;;;;;;0.10;100.00;97660.41;5055823;28;20232;-68
2024/01/30 04:52:10;;;;;;;9.97;4.87;;;;;;;0.15;100.00;97655.84;5056713;28;20380;-68
2024/01/30 04:54:37;;;;;;;8.47;4.60;;;;;;;0.04;100.00;97660.75;5057246;28;20595;-68
2024/01/30 04:57:09;;;;;;;9.97;5.13;;;;;;;0.08;100.00;97665.69;5056990;28;20206;-68
2024/01/30 04:59:35;;;;;;;10.87;4.63;;;;;;;0.08;100.00;97664.88;5056542;28;20219;-68
2024/01/30 05:02:02;;;;;;;12.03;5.30;;;;;;;0.07;100.00;97666.59;5056811;28;20203;-68
2024/01/30 05:04:29;;;;;;;10.97;4.80;;;;;;;0.11;100.00;97667.28;5056366;28;20314;-68
2024/01/30 05:06:55;;;;;;;13.43;5.43;;;;;;;0.18;100.00;97673.84;5056655;28;20204;-68
2024/01/30 05:09:22;;;;;;;14.43;5.63;;;;;;;0.08;100.00;97670.88;5055965;28;20730;-68
2024/01/30 05:11:48;;;;;;;15.53;6.30;;;;;;;0.21;100.00;97669.31;5056397;28;20227;-68
2024/01/30 05:14:16;;;;;;;12.17;6.17;;;;;;;0.36;100.00;97670.28;5056342;28;20298;-68
2024/01/30 05:16:46;;;;;;;12.20;5.37;;;;;;;0.13;100.00;97676.66;5054172;28;20784;-68
2024/01/30 05:19:13;;;;;;;13.17;5.97;;;;;;;0.16;100.00;97673.91;5052597;28;20220;-68
2024/01/30 05:21:40;;;;;;;13.87;6.07;;;;;;;0.11;100.00;97673.28;5056243;28;20287;-68
2024/01/30 05:24:07;;;;;;;14.20;6.03;;;;;;;0.08;100.00;97676.06;5055571;28;20374;-68
2024/01/30 05:26:33;;;;;;;14.97;5.73;;;;;;;0.07;100.00;97676.97;5055932;28;20207;-68
2024/01/30 05:29:00;;;;;;;11.27;4.97;;;;;;;0.10;100.00;97665.59;5056208;28;20221;-68
2024/01/30 05:31:28;;;;;;;10.67;5.57;;;;;;;0.18;100.00;97673.84;5056332;28;20232;-68
2024/01/30 05:33:55;;;;;;;10.83;5.53;;;;;;;0.15;100.00;97674.84;5056835;28;20216;-68
2024/01/30 05:36:22;;;;;;;10.93;5.30;;;;;;;0.01;100.00;97676.44;5056424;28;20586;-68
2024/01/30 05:38:48;;;;;;;9.97;4.83;;;;;;;0.01;100.00;97674.72;5056309;28;20224;-68
2024/01/30 05:41:15;;;;;;;12.97;5.57;;;;;;;-0.09;100.00;97664.03;5056262;28;20254;-68
2024/01/30 05:43:41;;;;;;;14.45;5.93;;;;;;;-0.33;100.00;97670.47;5055789;28;20438;-68
2024/01/30 05:46:08;;;;;;;13.33;5.63;;;;;;;-0.21;100.00;97681.06;5056594;28;20204;-68
2024/01/30 05:48:36;;;;;;;10.33;4.23;;;;;;;0.08;100.00;97680.41;5049393;28;20281;-68
2024/01/30 05:51:03;;;;;;;9.83;4.87;;;;;;;-0.03;100.00;97680.13;5056014;28;20221;-68
2024/01/30 05:53:30;;;;;;;8.40;4.20;;;;;;;-0.08;100.00;97682.09;5048190;28;20208;-68
2024/01/30 05:55:57;;;;;;;13.23;4.57;;;;;;;-0.06;100.00;97682.00;5055929;28;20203;-68
2024/01/30 05:58:23;;;;;;;7.80;4.07;;;;;;;-0.07;100.00;97688.13;5055450;28;20221;-68
2024/01/30 06:00:50;;;;;;;9.13;3.87;;;;;;;-0.04;100.00;97695.75;5056140;28;20202;-68
2024/01/30 06:03:16;;;;;;;23.73;5.13;;;;;;;-0.05;100.00;97688.88;5056208;28;20204;-68
2024/01/30 06:05:44;;;;;;;8.17;3.90;;;;;;;0.05;100.00;97689.19;5056374;28;20204;-68
2024/01/30 06:08:10;;;;;;;8.20;4.47;;;;;;;-0.02;100.00;97691.34;5055945;28;20216;-68
2024/01/30 06:10:36;;;;;;;12.13;5.00;;;;;;;-0.03;100.00;97692.25;5056237;28;20569;-68
2024/01/30 06:13:03;;;;;;;7.47;4.63;;;;;;;-0.03;100.00;97689.66;5056283;28;20204;-68
2024/01/30 06:15:30;;;;;;;12.17;4.07;;;;;;;-0.04;100.00;97688.78;5056091;28;20208;-68
2024/01/30 06:17:57;;;;;;;8.10;4.17;;;;;;;-0.03;100.00;97687.88;5049592;28;20203;-68
2024/01/30 06:20:23;;;;;;;7.80;4.30;;;;;;;-0.18;100.00;97687.81;5056126;28;20220;-69
2024/01/30 06:22:51;;;;;;;10.50;4.07;;;;;;;-0.18;100.00;97687.81;5056171;28;20206;-69
2024/01/30 06:25:17;;;;;;;10.97;5.07;;;;;;;-0.16;100.00;97689.44;5055800;28;20674;-69
2024/01/30 06:27:44;;;;;;;10.10;4.80;;;;;;;-0.11;100.00;97684.03;5047396;28;20213;-69
2024/01/30 06:30:12;;;;;;;9.20;4.83;;;;;;;-0.09;100.00;97689.94;5056030;28;20234;-68
2024/01/30 06:32:38;;;;;;;9.60;4.30;;;;;;;-0.09;100.00;97684.78;5055982;28;20206;-68
2024/01/30 06:35:06;;;;;;;8.00;4.10;;;;;;;0.01;100.00;97682.47;5056160;28;20558;-68
2024/01/30 06:37:33;;;;;;;11.93;5.50;;;;;;;-0.21;100.00;97688.81;5055836;28;20208;-69
2024/01/30 06:40:05;;;;;;;9.07;4.77;;;;;;;0.08;100.00;97686.41;5058621;28;20294;-68
2024/01/30 06:42:31;;;;;;;13.23;4.80;;;;;;;0.01;100.00;97685.06;5059800;28;20208;-68
2024/01/30 06:44:58;;;;;;;11.60;4.30;;;;;;;-0.01;100.00;97683.47;5059854;28;20197;-69
2024/01/30 06:47:24;;;;;;;13.73;5.47;;;;;;;-0.02;100.00;97685.22;5053036;28;20201;-68
2024/01/30 06:49:51;;;;;;;8.37;4.27;;;;;;;0.03;100.00;97692.75;5059391;28;20331;-68
2024/01/30 06:52:17;;;;;;;9.50;4.90;;;;;;;0.06;100.00;97693.44;5059570;28;20232;-68
2024/01/30 06:54:44;;;;;;;12.13;4.77;;;;;;;0.08;100.00;97688.19;5059714;28;20210;-67
2024/01/30 06:57:14;;;;;;;9.20;4.37;;;;;;;0.10;100.00;97687.19;5058822;28;20925;-67
2024/01/30 06:59:43;;;;;;;12.03;5.00;;;;;;;-0.01;100.00;97694.66;5059254;28;20224;-67
2024/01/30 07:02:09;;;;;;;10.90;4.37;;;;;;;0.07;100.00;97696.88;5051435;28;20736;-68
2024/01/30 07:04:39;;;;;;;10.27;4.93;;;;;;;0.12;100.00;97695.72;5059426;28;20570;-68
2024/01/30 07:07:06;;;;;;;8.73;3.43;;;;;;;0.12;100.00;97700.88;5058978;28;20200;-67
2024/01/30 07:09:34;;;;;;;7.97;4.27;;;;;;;0.08;100.00;97699.38;5058371;28;20230;-67
2024/01/30 07:12:00;;;;;;;7.63;4.33;;;;;;;0.13;100.00;97689.63;5059315;28;21082;-67
2024/01/30 07:14:28;;;;;;;10.47;4.13;;;;;;;0.31;100.00;97703.38;5058984;28;20679;-67
2024/01/30 07:16:55;;;;;;;8.13;4.17;;;;;;;0.28;100.00;97701.78;5055356;28;20205;-67
2024/01/30 07:19:21;;;;;;;7.73;3.20;;;;;;;0.28;100.00;97701.78;5055608;28;20234;-66
2024/01/30 07:21:48;;;;;;;7.00;4.20;;;;;;;0.26;100.00;97702.78;5059051;28;20203;-67
2024/01/30 07:24:14;;;;;;;10.93;5.10;;;;;;;0.27;100.00;97707.88;5055781;28;20214;-66
2024/01/30 07:26:41;;;;;;;7.07;3.93;;;;;;;0.37;100.00;97708.22;5059141;28;20208;-66
2024/01/30 07:29:07;;;;;;;10.37;4.53;;;;;;;0.53;100.00;97702.16;5057979;28;20777;-68
2024/01/30 07:31:35;;;;;;;11.23;4.87;;;;;;;0.76;100.00;97707.81;5058360;28;20223;-68
2024/01/30 07:34:02;;;;;;;8.83;4.83;;;;;;;0.72;100.00;97708.03;5059232;28;20200;-67
2024/01/30 07:36:29;;;;;;;7.63;4.23;;;;;;;0.80;100.00;97711.06;5050382;28;20300;-68
2024/01/30 07:38:55;;;;;;;9.63;4.67;;;;;;;0.91;100.00;97713.91;5057482;28;20224;-67
2024/01/30 07:41:22;;;;;;;8.87;4.83;;;;;;;1.02;100.00;97711.56;5058829;28;20200;-68
2024/01/30 07:43:49;;;;;;;8.77;4.40;;;;;;;1.06;100.00;97710.47;5058804;28;20208;-67
2024/01/30 07:46:15;;;;;;;10.07;4.63;;;;;;;1.19;100.00;97708.91;5058469;28;20208;-68
2024/01/30 07:48:43;;;;;;;9.00;4.13;;;;;;;1.35;100.00;97720.91;5050520;28;20240;-68
2024/01/30 07:51:10;;;;;;;11.73;4.57;;;;;;;1.28;100.00;97719.59;5057896;28;20227;-68
2024/01/30 07:53:36;;;;;;;7.60;3.80;;;;;;;1.43;100.00;97714.38;5058504;28;21029;-68
2024/01/30 07:56:03;;;;;;;6.97;4.20;;;;;;;1.56;100.00;97725.75;5058445;28;20261;-67
2024/01/30 07:58:30;;;;;;;10.23;4.23;;;;;;;1.64;100.00;97731.34;5057818;28;20232;-67
2024/01/30 08:00:58;;;;;;;7.80;3.90;;;;;;;1.69;100.00;97718.94;5057997;28;20699;-68
2024/01/30 08:03:24;;;;;;;10.87;4.90;;;;;;;1.85;100.00;97725.75;5055947;28;20204;-67
2024/01/30 08:05:52;;;;;;;10.03;4.10;;;;;;;2.05;100.00;97729.78;5057942;28;20698;-67
2024/01/30 08:08:19;;;;;;;7.73;3.47;;;;;;;2.01;100.00;97725.69;5057097;28;20210;-67
2024/01/30 08:10:45;;;;;;;12.60;4.93;;;;;;;1.94;100.00;97724.41;5049968;28;20733;-68
2024/01/30 08:13:12;;;;;;;10.80;4.37;;;;;;;2.14;100.00;97740.50;5058504;28;20200;-68
2024/01/30 08:15:38;;;;;;;12.80;4.33;;;;;;;1.80;100.00;97739.94;5057745;28;20210;-67
2024/01/30 08:18:06;;;;;;;11.03;4.23;;;;;;;2.21;100.00;97730.59;5049914;28;20201;-67
2024/01/30 08:20:33;;;;;;;10.60;4.80;;;;;;;2.28;100.00;97724.94;5057677;28;20320;-66
2024/01/30 08:23:01;;;;;;;12.50;5.57;;;;;;;2.53;100.00;97723.38;5058064;28;20208;-68
2024/01/30 08:25:28;;;;;;;10.40;5.00;;;;;;;2.39;100.00;97724.28;5057543;28;20204;-68
2024/01/30 08:27:54;;;;;;;31.67;6.33;;;;;;;2.51;100.00;97714.81;5057486;28;20204;-68
2024/01/30 08:30:21;;;;;;;15.97;5.93;;;;;;;2.77;100.00;97716.66;5057402;28;20233;-67
2024/01/30 08:32:47;;;;;;;13.97;6.17;;;;;;;2.85;100.00;97724.84;5056812;28;20571;-68
2024/01/30 08:35:15;;;;;;;17.57;7.50;;;;;;;2.86;100.00;97723.06;5057559;28;20213;-68
2024/01/30 08:37:42;;;;;;;15.50;6.00;;;;;;;3.08;100.00;97721.63;5057115;28;20287;-68
2024/01/30 08:40:11;;;;;;;15.47;6.13;;;;;;;3.47;100.00;97721.72;5056278;28;20261;-66
2024/01/30 08:42:37;;;;;;;10.90;5.27;;;;;;;3.58;100.00;97714.03;5053499;28;20198;-67
2024/01/30 08:45:05;;;;;;;17.80;5.93;;;;;;;3.61;100.00;97719.06;5058021;28;20938;-66
2024/01/30 08:47:33;;;;;;;12.53;5.10;;;;;;;3.78;100.00;97715.25;5048770;28;20211;-67
2024/01/30 08:49:58;;;;;;;11.63;4.77;;;;;;;3.98;100.00;97717.38;5056474;28;20223;-67
2024/01/30 08:52:25;;;;;;;6.93;3.87;;;;;;;4.11;100.00;97706.97;5056634;28;20595;-66
2024/01/30 08:54:51;;;;;;;7.10;3.50;;;;;;;4.08;100.00;97707.19;5057375;28;20208;-67
2024/01/30 08:57:19;;;;;;;9.80;4.77;;;;;;;4.38;100.00;97711.19;5056367;28;20211;-68
2024/01/30 08:59:46;;;;;;;9.03;4.27;;;;;;;4.24;100.00;97719.94;5056919;28;20218;-68
2024/01/30 09:02:16;;;;;;;7.90;3.50;;;;;;;4.62;100.00;97709.50;5056721;28;20204;-67
2024/01/30 09:04:42;;;;;;;6.60;3.50;;;;;;;4.59;100.00;97704.50;5056618;28;20203;-67
2024/01/30 09:07:10;;;;;;;9.13;3.20;;;;;;;4.78;100.00;97700.50;5056987;28;20200;-67
2024/01/30 09:09:36;;;;;;;7.37;3.27;;;;;;;4.72;100.00;97705.31;5056141;28;20237;-67
2024/01/30 09:12:06;;;;;;;6.40;2.80;;;;;;;4.87;100.00;97708.53;5056773;28;21026;-67
2024/01/30 09:14:34;;;;;;;7.63;2.90;;;;;;;5.08;100.00;97714.03;5057176;28;20204;-67
2024/01/30 09:17:02;;;;;;;6.27;2.80;;;;;;;5.02;100.00;97704.00;5051458;28;20205;-66
2024/01/30 09:19:29;;;;;;;9.93;3.63;;;;;;;4.91;100.00;97707.38;5053353;28;20224;-67
2024/01/30 09:21:55;;;;;;;7.93;4.00;;;;;;;5.02;100.00;97711.84;5056518;28;20291;-67
2024/01/30 09:24:22;;;;;;;14.13;3.87;;;;;;;5.18;100.00;97710.66;5056841;28;20204;-67
2024/01/30 09:26:49;;;;;;;7.63;3.50;;;;;;;5.17;100.00;97711.59;5056261;28;20193;-67
2024/01/30 09:29:15;;;;;;;7.60;3.70;;;;;;;5.37;100.00;97713.63;5055703;28;20645;-68
2024/01/30 09:31:45;;;;;;;8.37;3.37;;;;;;;5.35;100.00;97718.13;5056177;28;20605;-67
2024/01/30 09:34:12;;;;;;;7.93;3.87;;;;;;;5.36;100.00;97709.34;5056114;28;20730;-67
2024/01/30 09:36:39;;;;;;;9.93;4.27;;;;;;;5.34;100.00;97719.06;5056396;28;20211;-67
2024/01/30 09:39:06;;;;;;;6.73;3.43;;;;;;;5.45;100.00;97719.16;5055961;28;20254;-68
2024/01/30 09:41:35;;;;;;;6.30;4.20;;;;;;;5.52;100.00;97721.22;5056713;28;20200;-67
2024/01/30 09:44:03;;;;;;;8.23;3.83;;;;;;;5.64;100.00;97717.69;5056636;28;20212;-67
2024/01/30 09:46:32;;;;;;;7.00;2.90;;;;;;;5.71;100.00;97725.94;5055547;28;20211;-68
2024/01/30 09:49:03;;;;;;;5.43;3.20;;;;;;;5.69;100.00;97722.59;5049071;28;20220;-67
2024/01/30 09:51:31;;;;;;;8.20;3.07;;;;;;;5.48;100.00;97722.34;5047778;28;20225;-67
2024/01/30 09:53:57;;;;;;;7.17;3.40;;;;;;;5.66;100.00;97720.19;5056631;28;20200;-67
2024/01/30 09:56:24;;;;;;;5.93;3.17;;;;;;;5.66;100.00;97718.41;5057800;28;20204;-69
2024/01/30 09:58:51;;;;;;;10.97;4.27;;;;;;;5.57;100.00;97720.88;5055488;28;20307;-67
2024/01/30 10:01:19;;;;;;;10.90;4.43;;;;;;;5.90;100.00;97719.28;5056226;28;20204;-67
2024/01/30 10:03:45;;;;;;;9.37;4.67;;;;;;;5.81;100.00;97719.13;5056857;28;20204;-68
2024/01/30 10:06:15;;;;;;;13.40;5.40;;;;;;;6.02;100.00;97720.16;5056833;28;20197;-67
2024/01/30 10:08:43;;;;;;;11.00;5.23;;;;;;;6.03;100.00;97717.41;5055260;28;20270;-68
2024/01/30 10:11:10;;;;;;;7.10;3.50;;;;;;;6.01;100.00;97716.72;5055962;28;20220;-68
2024/01/30 10:13:37;;;;;;;20.60;6.30;;;;;;;6.10;100.00;97719.47;5059108;28;21277;-67
2024/01/30 10:16:06;;;;;;;11.17;5.13;;;;;;;6.11;100.00;97721.16;5059926;28;20200;-68
2024/01/30 10:18:32;;;;;;;9.27;4.13;;;;;;;6.25;100.00;97715.72;5059293;28;20220;-68
2024/01/30 10:20:59;;;;;;;8.97;4.27;;;;;;;6.39;100.00;97709.41;5051689;28;20282;-68
2024/01/30 10:23:28;;;;;;;10.30;5.43;;;;;;;6.56;100.00;97707.19;5060059;28;20201;-68
2024/01/30 10:25:54;;;;;;;10.40;4.80;;;;;;;6.46;100.00;97698.38;5060108;28;20606;-68
2024/01/30 10:28:21;;;;;;;5.57;3.50;;;;;;;6.50;100.00;97698.97;5059731;28;20204;-68
2024/01/30 10:30:57;;;;;;;9.07;4.73;;;;;;;6.73;100.00;97698.88;5059694;28;20553;-68
2024/01/30 10:33:24;;;;;;;13.87;4.70;;;;;;;6.93;100.00;97693.75;5059597;28;20220;-67
2024/01/30 10:35:52;;;;;;;10.37;3.80;;;;;;;6.82;100.00;97699.00;5060279;28;20207;-68
2024/01/30 10:38:21;;;;;;;6.23;3.30;;;;;;;6.75;100.00;97692.56;5059110;28;20215;-68
2024/01/30 10:40:52;;;;;;;12.07;4.70;;;;;;;6.94;100.00;97697.22;5060031;28;20208;-68
2024/01/30 10:43:22;;;;;;;7.70;3.77;;;;;;;7.28;100.00;97700.53;5059760;28;20203;-68
2024/01/30 10:45:53;;;;;;;7.57;4.03;;;;;;;7.21;100.00;97689.81;5059644;28;20667;-68
2024/01/30 10:48:30;;;;;;;5.87;3.23;;;;;;;7.45;100.00;97694.75;5058723;28;20299;-68
2024/01/30 10:51:00;;;;;;;7.20;3.13;;;;;;;7.54;100.00;97691.41;5060316;28;20210;-68
2024/01/30 10:53:27;;;;;;;9.73;4.00;;;;;;;7.60;100.00;97690.91;5059246;28;20228;-68
2024/01/30 10:55:57;;;;;;;9.67;4.20;;;;;;;7.71;100.00;97690.03;5059795;28;20201;-68
2024/01/30 10:58:24;;;;;;;10.20;4.97;;;;;;;7.49;100.00;97690.94;5059345;28;20209;-68
2024/01/30 11:00:52;;;;;;;12.63;5.03;;;;;;;7.69;100.00;97684.91;5058367;28;20346;-68
2024/01/30 11:03:18;;;;;;;11.07;5.63;;;;;;;7.64;100.00;97684.47;5059255;28;20232;-68
2024/01/30 11:05:50;;;;;;;14.00;5.63;;;;;;;7.93;100.00;97677.69;5060393;28;20215;-68
2024/01/30 11:08:24;;;;;;;11.73;4.87;;;;;;;7.85;100.00;97672.19;5058897;28;20212;-68
2024/01/30 11:10:55;;;;;;;9.23;5.30;;;;;;;7.52;100.00;97680.22;5058671;28;20193;-67
2024/01/30 11:13:23;;;;;;;13.70;5.17;;;;;;;7.96;100.00;97680.84;5054506;28;20224;-68
2024/01/30 11:15:49;;;;;;;9.77;4.53;;;;;;;7.94;100.00;97682.78;5059533;28;20204;-68
2024/01/30 11:18:24;;;;;;;21.03;4.80;;;;;;;8.17;100.00;97680.91;5057705;28;20204;-68
2024/01/30 11:20:50;;;;;;;8.87;4.30;;;;;;;7.85;100.00;97681.88;5058831;28;20219;-68
2024/01/30 11:23:17;;;;;;;11.20;4.87;;;;;;;8.07;100.00;97672.94;5058935;28;20208;-68
2024/01/30 11:25:45;;;;;;;9.17;4.57;;;;;;;8.32;100.00;97664.69;5058266;28;20204;-68